sensor_id;sensor_type;location;lat;lon;timestamp;temperature;humidity
35668;DHT22;22158;59.280;17.806;2023-06-22T00:01:56;19.30;99.90
35668;DHT22;22158;59.280;17.806;2023-06-22T00:04:22;19.30;99.90
35668;DHT22;22158;59.280;17.806;2023-06-22T00:06:47;19.30;99.90
35668;DHT22;22158;59.280;17.806;2023-06-22T00:09:13;19.30;99.90
35668;DHT22;22158;59.280;17.806;2023-06-22T00:11:39;19.30;99.90
35668;DHT22;22158;59.280;17.806;2023-06-22T00:14:04;19.30;99.90
35668;DHT22;22158;59.280;17.806;2023-06-22T00:16:32;19.30;99.90
35668;DHT22;22158;59.280;17.806;2023-06-22T00:18:58;19.30;99.90
35668;DHT22;22158;59.280;17.806;2023-06-22T00:21:26;19.30;99.90
35668;DHT22;22158;59.280;17.806;2023-06-22T00:23:52;19.30;99.90
35668;DHT22;22158;59.280;17.806;2023-06-22T00:26:18;19.30;99.90
35668;DHT22;22158;59.280;17.806;2023-06-22T00:28:43;19.20;99.90
35668;DHT22;22158;59.280;17.806;2023-06-22T00:31:09;19.20;99.90
35668;DHT22;22158;59.280;17.806;2023-06-22T00:33:34;19.30;99.90
35668;DHT22;22158;59.280;17.806;2023-06-22T00:36:00;19.30;99.90
35668;DHT22;22158;59.280;17.806;2023-06-22T00:38:28;19.30;99.90
35668;DHT22;22158;59.280;17.806;2023-06-22T00:40:54;19.30;99.90
35668;DHT22;22158;59.280;17.806;2023-06-22T00:43:19;19.30;99.90
35668;DHT22;22158;59.280;17.806;2023-06-22T00:45:45;19.20;99.90
35668;DHT22;22158;59.280;17.806;2023-06-22T00:48:12;19.20;99.90
35668;DHT22;22158;59.280;17.806;2023-06-22T00:50:39;19.20;99.90
35668;DHT22;22158;59.280;17.806;2023-06-22T00:53:06;19.20;99.90
35668;DHT22;22158;59.280;17.806;2023-06-22T00:55:43;19.20;99.90
35668;DHT22;22158;59.280;17.806;2023-06-22T00:58:11;19.20;99.90
35668;DHT22;22158;59.280;17.806;2023-06-22T01:00:38;19.20;99.90
35668;DHT22;22158;59.280;17.806;2023-06-22T01:03:04;19.20;99.90
35668;DHT22;22158;59.280;17.806;2023-06-22T01:05:34;19.30;99.90
35668;DHT22;22158;59.280;17.806;2023-06-22T01:11:07;19.20;99.90
35668;DHT22;22158;59.280;17.806;2023-06-22T01:14:00;19.20;99.90
35668;DHT22;22158;59.280;17.806;2023-06-22T01:16:30;19.20;99.90
35668;DHT22;22158;59.280;17.806;2023-06-22T01:18:59;19.10;99.90
35668;DHT22;22158;59.280;17.806;2023-06-22T01:21:28;19.20;99.90
35668;DHT22;22158;59.280;17.806;2023-06-22T01:29:27;19.20;99.90
35668;DHT22;22158;59.280;17.806;2023-06-22T01:31:54;19.10;99.90
35668;DHT22;22158;59.280;17.806;2023-06-22T01:34:21;19.10;99.90
35668;DHT22;22158;59.280;17.806;2023-06-22T01:36:49;19.10;99.90
35668;DHT22;22158;59.280;17.806;2023-06-22T01:39:15;19.10;99.90
35668;DHT22;22158;59.280;17.806;2023-06-22T01:41:42;19.20;99.90
35668;DHT22;22158;59.280;17.806;2023-06-22T01:44:09;19.20;99.90
35668;DHT22;22158;59.280;17.806;2023-06-22T01:46:35;19.20;99.90
35668;DHT22;22158;59.280;17.806;2023-06-22T01:49:02;19.20;99.90
35668;DHT22;22158;59.280;17.806;2023-06-22T01:51:29;19.20;99.90
35668;DHT22;22158;59.280;17.806;2023-06-22T01:53:54;19.20;99.90
35668;DHT22;22158;59.280;17.806;2023-06-22T01:56:20;19.20;99.90
35668;DHT22;22158;59.280;17.806;2023-06-22T01:58:51;19.20;99.90
35668;DHT22;22158;59.280;17.806;2023-06-22T02:01:24;19.20;99.90
35668;DHT22;22158;59.280;17.806;2023-06-22T02:04:12;19.20;99.90
35668;DHT22;22158;59.280;17.806;2023-06-22T02:06:42;19.20;99.90
35668;DHT22;22158;59.280;17.806;2023-06-22T02:09:14;19.20;99.90
35668;DHT22;22158;59.280;17.806;2023-06-22T02:11:43;19.20;99.90
35668;DHT22;22158;59.280;17.806;2023-06-22T02:14:10;19.20;99.90
35668;DHT22;22158;59.280;17.806;2023-06-22T02:16:36;19.20;99.90
35668;DHT22;22158;59.280;17.806;2023-06-22T02:19:03;19.20;99.90
35668;DHT22;22158;59.280;17.806;2023-06-22T02:21:29;19.10;99.90
35668;DHT22;22158;59.280;17.806;2023-06-22T02:23:55;19.10;99.90
35668;DHT22;22158;59.280;17.806;2023-06-22T02:26:21;19.00;99.90
35668;DHT22;22158;59.280;17.806;2023-06-22T02:28:47;19.10;99.90
35668;DHT22;22158;59.280;17.806;2023-06-22T02:31:13;19.10;99.90
35668;DHT22;22158;59.280;17.806;2023-06-22T02:33:38;19.00;99.90
35668;DHT22;22158;59.280;17.806;2023-06-22T02:36:04;19.00;99.90
35668;DHT22;22158;59.280;17.806;2023-06-22T02:38:31;19.10;99.90
35668;DHT22;22158;59.280;17.806;2023-06-22T02:40:58;19.10;99.90
35668;DHT22;22158;59.280;17.806;2023-06-22T02:43:24;19.10;99.90
35668;DHT22;22158;59.280;17.806;2023-06-22T02:45:50;19.10;99.90
35668;DHT22;22158;59.280;17.806;2023-06-22T02:48:15;19.10;99.90
35668;DHT22;22158;59.280;17.806;2023-06-22T02:50:41;19.00;99.90
35668;DHT22;22158;59.280;17.806;2023-06-22T02:53:06;19.00;99.90
35668;DHT22;22158;59.280;17.806;2023-06-22T02:55:32;19.00;99.90
35668;DHT22;22158;59.280;17.806;2023-06-22T02:57:57;19.10;99.90
35668;DHT22;22158;59.280;17.806;2023-06-22T03:00:25;19.10;99.90
35668;DHT22;22158;59.280;17.806;2023-06-22T03:02:55;19.10;99.90
35668;DHT22;22158;59.280;17.806;2023-06-22T03:05:21;19.10;99.90
35668;DHT22;22158;59.280;17.806;2023-06-22T03:07:47;19.20;99.90
35668;DHT22;22158;59.280;17.806;2023-06-22T03:10:13;19.20;99.90
35668;DHT22;22158;59.280;17.806;2023-06-22T03:12:40;19.30;99.90
35668;DHT22;22158;59.280;17.806;2023-06-22T03:15:07;19.30;99.90
35668;DHT22;22158;59.280;17.806;2023-06-22T03:17:34;19.20;99.90
35668;DHT22;22158;59.280;17.806;2023-06-22T03:20:00;19.20;99.90
35668;DHT22;22158;59.280;17.806;2023-06-22T03:22:26;19.20;99.90
35668;DHT22;22158;59.280;17.806;2023-06-22T03:24:52;19.10;99.90
35668;DHT22;22158;59.280;17.806;2023-06-22T03:27:17;19.10;99.90
35668;DHT22;22158;59.280;17.806;2023-06-22T03:29:44;19.00;99.90
35668;DHT22;22158;59.280;17.806;2023-06-22T03:32:10;19.00;99.90
35668;DHT22;22158;59.280;17.806;2023-06-22T03:34:35;19.10;99.90
35668;DHT22;22158;59.280;17.806;2023-06-22T03:37:01;19.00;99.90
35668;DHT22;22158;59.280;17.806;2023-06-22T03:39:27;19.00;99.90
35668;DHT22;22158;59.280;17.806;2023-06-22T03:41:52;19.00;99.90
35668;DHT22;22158;59.280;17.806;2023-06-22T03:44:18;19.00;99.90
35668;DHT22;22158;59.280;17.806;2023-06-22T03:46:44;19.10;99.90
35668;DHT22;22158;59.280;17.806;2023-06-22T03:49:09;19.10;99.90
35668;DHT22;22158;59.280;17.806;2023-06-22T03:51:35;19.10;99.90
35668;DHT22;22158;59.280;17.806;2023-06-22T03:54:00;19.20;99.90
35668;DHT22;22158;59.280;17.806;2023-06-22T03:56:26;19.20;99.90
35668;DHT22;22158;59.280;17.806;2023-06-22T03:58:52;19.20;99.90
35668;DHT22;22158;59.280;17.806;2023-06-22T04:01:17;19.30;99.90
35668;DHT22;22158;59.280;17.806;2023-06-22T04:03:43;19.30;99.90
35668;DHT22;22158;59.280;17.806;2023-06-22T04:06:08;19.30;99.90
35668;DHT22;22158;59.280;17.806;2023-06-22T04:08:34;19.30;99.90
35668;DHT22;22158;59.280;17.806;2023-06-22T04:11:00;19.30;99.90
35668;DHT22;22158;59.280;17.806;2023-06-22T04:13:25;19.30;99.90
35668;DHT22;22158;59.280;17.806;2023-06-22T04:15:51;19.30;99.90
35668;DHT22;22158;59.280;17.806;2023-06-22T04:18:16;19.40;99.90
35668;DHT22;22158;59.280;17.806;2023-06-22T04:20:42;19.40;99.90
35668;DHT22;22158;59.280;17.806;2023-06-22T04:23:07;19.50;99.90
35668;DHT22;22158;59.280;17.806;2023-06-22T04:25:33;19.50;99.90
35668;DHT22;22158;59.280;17.806;2023-06-22T04:27:59;19.50;99.90
35668;DHT22;22158;59.280;17.806;2023-06-22T04:30:24;19.50;99.90
35668;DHT22;22158;59.280;17.806;2023-06-22T04:32:50;19.60;99.90
35668;DHT22;22158;59.280;17.806;2023-06-22T04:35:22;19.60;99.90
35668;DHT22;22158;59.280;17.806;2023-06-22T04:37:50;19.60;99.90
35668;DHT22;22158;59.280;17.806;2023-06-22T04:40:23;19.70;99.90
35668;DHT22;22158;59.280;17.806;2023-06-22T04:42:49;19.70;99.90
35668;DHT22;22158;59.280;17.806;2023-06-22T04:45:19;19.60;99.90
35668;DHT22;22158;59.280;17.806;2023-06-22T04:47:44;19.70;99.90
35668;DHT22;22158;59.280;17.806;2023-06-22T04:50:11;19.60;99.90
35668;DHT22;22158;59.280;17.806;2023-06-22T04:52:37;19.60;99.90
35668;DHT22;22158;59.280;17.806;2023-06-22T04:55:03;19.60;99.90
35668;DHT22;22158;59.280;17.806;2023-06-22T04:57:29;19.70;99.90
35668;DHT22;22158;59.280;17.806;2023-06-22T04:59:58;19.70;99.90
35668;DHT22;22158;59.280;17.806;2023-06-22T05:02:36;19.80;99.90
35668;DHT22;22158;59.280;17.806;2023-06-22T05:05:03;19.80;99.90
35668;DHT22;22158;59.280;17.806;2023-06-22T05:07:35;19.80;99.90
35668;DHT22;22158;59.280;17.806;2023-06-22T05:10:02;19.90;99.90
35668;DHT22;22158;59.280;17.806;2023-06-22T05:12:28;20.10;99.90
35668;DHT22;22158;59.280;17.806;2023-06-22T05:14:54;20.20;99.90
35668;DHT22;22158;59.280;17.806;2023-06-22T05:17:20;20.30;99.90
35668;DHT22;22158;59.280;17.806;2023-06-22T05:19:46;20.40;99.90
35668;DHT22;22158;59.280;17.806;2023-06-22T05:22:15;20.50;99.90
35668;DHT22;22158;59.280;17.806;2023-06-22T05:24:41;20.50;99.90
35668;DHT22;22158;59.280;17.806;2023-06-22T05:27:08;20.50;99.90
35668;DHT22;22158;59.280;17.806;2023-06-22T05:29:33;20.40;99.90
35668;DHT22;22158;59.280;17.806;2023-06-22T05:31:59;20.40;99.90
35668;DHT22;22158;59.280;17.806;2023-06-22T05:34:24;20.30;99.90
35668;DHT22;22158;59.280;17.806;2023-06-22T05:36:50;20.30;99.90
35668;DHT22;22158;59.280;17.806;2023-06-22T05:39:15;20.30;99.90
35668;DHT22;22158;59.280;17.806;2023-06-22T05:41:41;20.20;99.90
35668;DHT22;22158;59.280;17.806;2023-06-22T05:44:08;20.20;99.90
35668;DHT22;22158;59.280;17.806;2023-06-22T05:46:34;20.20;99.90
35668;DHT22;22158;59.280;17.806;2023-06-22T05:48:59;20.20;99.90
35668;DHT22;22158;59.280;17.806;2023-06-22T05:51:25;20.30;99.90
35668;DHT22;22158;59.280;17.806;2023-06-22T05:53:50;20.30;99.90
35668;DHT22;22158;59.280;17.806;2023-06-22T05:56:17;20.30;99.90
35668;DHT22;22158;59.280;17.806;2023-06-22T05:58:42;20.40;99.90
35668;DHT22;22158;59.280;17.806;2023-06-22T06:01:08;20.40;99.90
35668;DHT22;22158;59.280;17.806;2023-06-22T06:03:33;20.50;99.90
35668;DHT22;22158;59.280;17.806;2023-06-22T06:05:59;20.60;99.90
35668;DHT22;22158;59.280;17.806;2023-06-22T06:08:25;20.50;99.90
35668;DHT22;22158;59.280;17.806;2023-06-22T06:10:50;20.70;99.90
35668;DHT22;22158;59.280;17.806;2023-06-22T06:13:18;20.90;99.90
35668;DHT22;22158;59.280;17.806;2023-06-22T06:15:43;20.90;99.90
35668;DHT22;22158;59.280;17.806;2023-06-22T06:18:09;20.90;99.90
35668;DHT22;22158;59.280;17.806;2023-06-22T06:20:35;20.80;99.90
35668;DHT22;22158;59.280;17.806;2023-06-22T06:23:01;20.70;99.90
35668;DHT22;22158;59.280;17.806;2023-06-22T06:25:27;20.70;99.90
35668;DHT22;22158;59.280;17.806;2023-06-22T06:27:52;20.70;99.90
35668;DHT22;22158;59.280;17.806;2023-06-22T06:30:20;20.60;99.90
35668;DHT22;22158;59.280;17.806;2023-06-22T06:32:46;20.70;99.90
35668;DHT22;22158;59.280;17.806;2023-06-22T06:35:13;20.70;99.90
35668;DHT22;22158;59.280;17.806;2023-06-22T06:37:41;20.80;99.90
35668;DHT22;22158;59.280;17.806;2023-06-22T06:40:08;20.90;99.90
35668;DHT22;22158;59.280;17.806;2023-06-22T06:42:39;20.90;99.90
35668;DHT22;22158;59.280;17.806;2023-06-22T06:45:06;20.90;99.90
35668;DHT22;22158;59.280;17.806;2023-06-22T06:47:32;20.80;99.90
35668;DHT22;22158;59.280;17.806;2023-06-22T06:49:57;20.80;99.90
35668;DHT22;22158;59.280;17.806;2023-06-22T06:52:23;20.80;99.90
35668;DHT22;22158;59.280;17.806;2023-06-22T06:54:49;20.80;99.90
35668;DHT22;22158;59.280;17.806;2023-06-22T06:57:14;20.70;99.90
35668;DHT22;22158;59.280;17.806;2023-06-22T06:59:41;20.60;99.90
35668;DHT22;22158;59.280;17.806;2023-06-22T07:02:07;20.70;99.90
35668;DHT22;22158;59.280;17.806;2023-06-22T07:04:33;20.90;99.90
35668;DHT22;22158;59.280;17.806;2023-06-22T07:07:00;21.00;99.90
35668;DHT22;22158;59.280;17.806;2023-06-22T07:09:26;21.10;99.90
35668;DHT22;22158;59.280;17.806;2023-06-22T07:11:52;21.10;99.90
35668;DHT22;22158;59.280;17.806;2023-06-22T07:14:17;21.10;99.90
35668;DHT22;22158;59.280;17.806;2023-06-22T07:16:43;20.80;99.90
35668;DHT22;22158;59.280;17.806;2023-06-22T07:19:11;20.70;99.90
35668;DHT22;22158;59.280;17.806;2023-06-22T07:21:38;20.60;99.90
35668;DHT22;22158;59.280;17.806;2023-06-22T07:24:05;20.50;99.90
35668;DHT22;22158;59.280;17.806;2023-06-22T07:26:31;20.40;99.90
35668;DHT22;22158;59.280;17.806;2023-06-22T07:28:57;20.40;99.90
35668;DHT22;22158;59.280;17.806;2023-06-22T07:31:24;20.50;99.90
35668;DHT22;22158;59.280;17.806;2023-06-22T07:33:50;20.50;99.90
35668;DHT22;22158;59.280;17.806;2023-06-22T07:36:17;20.60;99.90
35668;DHT22;22158;59.280;17.806;2023-06-22T07:38:43;20.70;99.90
35668;DHT22;22158;59.280;17.806;2023-06-22T07:41:08;20.60;99.90
35668;DHT22;22158;59.280;17.806;2023-06-22T07:43:34;20.80;99.90
35668;DHT22;22158;59.280;17.806;2023-06-22T07:46:02;21.00;99.90
35668;DHT22;22158;59.280;17.806;2023-06-22T07:48:28;21.20;99.90
35668;DHT22;22158;59.280;17.806;2023-06-22T07:50:54;21.20;99.90
35668;DHT22;22158;59.280;17.806;2023-06-22T07:53:20;21.40;99.90
35668;DHT22;22158;59.280;17.806;2023-06-22T07:55:46;21.50;99.90
35668;DHT22;22158;59.280;17.806;2023-06-22T07:58:11;21.70;99.90
35668;DHT22;22158;59.280;17.806;2023-06-22T08:00:37;21.80;99.90
35668;DHT22;22158;59.280;17.806;2023-06-22T08:03:03;21.90;99.90
35668;DHT22;22158;59.280;17.806;2023-06-22T08:05:30;21.90;99.90
35668;DHT22;22158;59.280;17.806;2023-06-22T08:07:56;21.90;99.90
35668;DHT22;22158;59.280;17.806;2023-06-22T08:10:21;21.90;99.90
35668;DHT22;22158;59.280;17.806;2023-06-22T08:12:47;22.10;99.90
35668;DHT22;22158;59.280;17.806;2023-06-22T08:15:13;22.20;99.90
35668;DHT22;22158;59.280;17.806;2023-06-22T08:17:39;22.20;99.90
35668;DHT22;22158;59.280;17.806;2023-06-22T08:20:06;22.20;99.90
35668;DHT22;22158;59.280;17.806;2023-06-22T08:22:35;22.20;99.90
35668;DHT22;22158;59.280;17.806;2023-06-22T08:25:02;22.30;99.90
35668;DHT22;22158;59.280;17.806;2023-06-22T08:27:29;22.30;99.90
35668;DHT22;22158;59.280;17.806;2023-06-22T08:29:57;22.40;99.90
35668;DHT22;22158;59.280;17.806;2023-06-22T08:32:24;22.50;99.90
35668;DHT22;22158;59.280;17.806;2023-06-22T08:34:52;22.50;99.90
35668;DHT22;22158;59.280;17.806;2023-06-22T08:37:18;22.50;99.90
35668;DHT22;22158;59.280;17.806;2023-06-22T08:39:43;22.50;99.90
35668;DHT22;22158;59.280;17.806;2023-06-22T08:42:09;22.50;99.90
35668;DHT22;22158;59.280;17.806;2023-06-22T08:44:34;22.60;99.90
35668;DHT22;22158;59.280;17.806;2023-06-22T08:47:00;22.50;99.90
35668;DHT22;22158;59.280;17.806;2023-06-22T08:49:26;22.80;99.90
35668;DHT22;22158;59.280;17.806;2023-06-22T08:51:51;22.90;99.90
35668;DHT22;22158;59.280;17.806;2023-06-22T08:54:19;22.90;99.90
35668;DHT22;22158;59.280;17.806;2023-06-22T08:56:44;23.00;99.90
35668;DHT22;22158;59.280;17.806;2023-06-22T08:59:10;23.20;99.90
35668;DHT22;22158;59.280;17.806;2023-06-22T09:01:36;23.30;99.80
35668;DHT22;22158;59.280;17.806;2023-06-22T09:04:01;23.40;99.90
35668;DHT22;22158;59.280;17.806;2023-06-22T09:06:27;23.50;99.20
35668;DHT22;22158;59.280;17.806;2023-06-22T09:08:52;23.50;99.90
35668;DHT22;22158;59.280;17.806;2023-06-22T09:11:18;23.70;99.90
35668;DHT22;22158;59.280;17.806;2023-06-22T09:13:43;23.80;98.70
35668;DHT22;22158;59.280;17.806;2023-06-22T09:16:09;23.70;99.00
35668;DHT22;22158;59.280;17.806;2023-06-22T09:18:35;23.70;99.20
35668;DHT22;22158;59.280;17.806;2023-06-22T09:21:01;23.80;98.10
35668;DHT22;22158;59.280;17.806;2023-06-22T09:23:27;23.90;97.60
35668;DHT22;22158;59.280;17.806;2023-06-22T09:25:53;23.90;98.90
35668;DHT22;22158;59.280;17.806;2023-06-22T09:28:18;24.00;98.40
35668;DHT22;22158;59.280;17.806;2023-06-22T09:30:44;23.80;99.00
35668;DHT22;22158;59.280;17.806;2023-06-22T09:33:10;23.90;98.30
35668;DHT22;22158;59.280;17.806;2023-06-22T09:35:35;24.00;99.00
35668;DHT22;22158;59.280;17.806;2023-06-22T09:38:01;24.20;98.40
35668;DHT22;22158;59.280;17.806;2023-06-22T09:40:26;24.30;96.80
35668;DHT22;22158;59.280;17.806;2023-06-22T09:42:52;24.40;96.40
35668;DHT22;22158;59.280;17.806;2023-06-22T09:45:17;24.40;97.20
35668;DHT22;22158;59.280;17.806;2023-06-22T09:47:43;24.30;95.70
35668;DHT22;22158;59.280;17.806;2023-06-22T09:50:09;24.40;97.20
35668;DHT22;22158;59.280;17.806;2023-06-22T09:52:34;24.40;96.30
35668;DHT22;22158;59.280;17.806;2023-06-22T09:55:00;24.40;95.60
35668;DHT22;22158;59.280;17.806;2023-06-22T09:57:25;24.70;97.30
35668;DHT22;22158;59.280;17.806;2023-06-22T09:59:51;24.80;95.70
35668;DHT22;22158;59.280;17.806;2023-06-22T10:02:17;25.00;95.30
35668;DHT22;22158;59.280;17.806;2023-06-22T10:04:42;25.00;95.80
35668;DHT22;22158;59.280;17.806;2023-06-22T10:07:08;25.20;95.10
35668;DHT22;22158;59.280;17.806;2023-06-22T10:09:33;25.20;94.80
35668;DHT22;22158;59.280;17.806;2023-06-22T10:11:59;25.30;94.90
35668;DHT22;22158;59.280;17.806;2023-06-22T10:14:24;25.20;93.70
35668;DHT22;22158;59.280;17.806;2023-06-22T10:16:52;25.40;94.70
35668;DHT22;22158;59.280;17.806;2023-06-22T10:19:17;25.20;92.60
35668;DHT22;22158;59.280;17.806;2023-06-22T10:21:43;25.10;94.60
35668;DHT22;22158;59.280;17.806;2023-06-22T10:24:09;25.20;93.10
35668;DHT22;22158;59.280;17.806;2023-06-22T10:26:35;25.30;93.50
35668;DHT22;22158;59.280;17.806;2023-06-22T10:29:02;25.40;93.10
35668;DHT22;22158;59.280;17.806;2023-06-22T10:31:28;25.70;93.00
35668;DHT22;22158;59.280;17.806;2023-06-22T10:33:54;25.90;93.20
35668;DHT22;22158;59.280;17.806;2023-06-22T10:36:21;26.10;92.50
35668;DHT22;22158;59.280;17.806;2023-06-22T10:38:47;25.90;91.70
35668;DHT22;22158;59.280;17.806;2023-06-22T10:41:13;26.00;92.50
35668;DHT22;22158;59.280;17.806;2023-06-22T10:43:39;26.00;91.70
35668;DHT22;22158;59.280;17.806;2023-06-22T10:46:04;25.90;91.40
35668;DHT22;22158;59.280;17.806;2023-06-22T10:48:30;26.20;91.80
35668;DHT22;22158;59.280;17.806;2023-06-22T10:50:56;26.30;91.00
35668;DHT22;22158;59.280;17.806;2023-06-22T10:53:21;26.50;90.80
35668;DHT22;22158;59.280;17.806;2023-06-22T10:55:47;26.60;90.50
35668;DHT22;22158;59.280;17.806;2023-06-22T10:58:13;26.50;90.30
35668;DHT22;22158;59.280;17.806;2023-06-22T11:00:38;26.70;90.50
35668;DHT22;22158;59.280;17.806;2023-06-22T11:03:04;26.70;90.10
35668;DHT22;22158;59.280;17.806;2023-06-22T11:05:30;27.00;90.30
35668;DHT22;22158;59.280;17.806;2023-06-22T11:07:55;27.30;90.70
35668;DHT22;22158;59.280;17.806;2023-06-22T11:10:21;27.50;87.40
35668;DHT22;22158;59.280;17.806;2023-06-22T11:12:47;27.40;87.40
35668;DHT22;22158;59.280;17.806;2023-06-22T11:15:12;27.30;87.10
35668;DHT22;22158;59.280;17.806;2023-06-22T11:17:38;27.50;90.20
35668;DHT22;22158;59.280;17.806;2023-06-22T11:20:04;27.20;86.40
35668;DHT22;22158;59.280;17.806;2023-06-22T11:22:39;27.10;87.20
35668;DHT22;22158;59.280;17.806;2023-06-22T11:25:05;27.30;86.40
35668;DHT22;22158;59.280;17.806;2023-06-22T11:27:31;27.60;85.10
35668;DHT22;22158;59.280;17.806;2023-06-22T11:29:56;27.60;84.70
35668;DHT22;22158;59.280;17.806;2023-06-22T11:32:22;27.50;84.30
35668;DHT22;22158;59.280;17.806;2023-06-22T11:34:48;27.60;86.60
35668;DHT22;22158;59.280;17.806;2023-06-22T11:37:14;27.50;83.20
35668;DHT22;22158;59.280;17.806;2023-06-22T11:39:41;27.70;84.00
35668;DHT22;22158;59.280;17.806;2023-06-22T11:42:07;27.70;83.50
35668;DHT22;22158;59.280;17.806;2023-06-22T11:44:33;27.90;85.60
35668;DHT22;22158;59.280;17.806;2023-06-22T11:46:59;28.00;81.00
35668;DHT22;22158;59.280;17.806;2023-06-22T11:49:26;27.90;84.10
35668;DHT22;22158;59.280;17.806;2023-06-22T11:51:52;27.90;83.30
35668;DHT22;22158;59.280;17.806;2023-06-22T11:54:17;28.10;84.40
35668;DHT22;22158;59.280;17.806;2023-06-22T11:56:43;28.30;81.30
35668;DHT22;22158;59.280;17.806;2023-06-22T11:59:08;28.20;79.50
35668;DHT22;22158;59.280;17.806;2023-06-22T12:01:34;28.30;80.10
35668;DHT22;22158;59.280;17.806;2023-06-22T12:04:00;28.00;77.60
35668;DHT22;22158;59.280;17.806;2023-06-22T12:06:25;27.90;80.20
35668;DHT22;22158;59.280;17.806;2023-06-22T12:08:51;28.00;82.80
35668;DHT22;22158;59.280;17.806;2023-06-22T12:11:16;28.20;79.80
35668;DHT22;22158;59.280;17.806;2023-06-22T12:13:42;28.40;80.30
35668;DHT22;22158;59.280;17.806;2023-06-22T12:16:07;28.40;78.60
35668;DHT22;22158;59.280;17.806;2023-06-22T12:18:33;28.20;79.20
35668;DHT22;22158;59.280;17.806;2023-06-22T12:20:59;28.00;80.30
35668;DHT22;22158;59.280;17.806;2023-06-22T12:23:24;28.20;81.50
35668;DHT22;22158;59.280;17.806;2023-06-22T12:25:50;28.20;81.80
35668;DHT22;22158;59.280;17.806;2023-06-22T12:28:15;28.30;81.40
35668;DHT22;22158;59.280;17.806;2023-06-22T12:30:41;28.40;80.30
35668;DHT22;22158;59.280;17.806;2023-06-22T12:33:07;28.70;79.00
35668;DHT22;22158;59.280;17.806;2023-06-22T12:35:32;29.00;81.30
35668;DHT22;22158;59.280;17.806;2023-06-22T12:37:58;28.90;76.80
35668;DHT22;22158;59.280;17.806;2023-06-22T12:40:24;29.10;80.50
35668;DHT22;22158;59.280;17.806;2023-06-22T12:42:50;29.20;80.10
35668;DHT22;22158;59.280;17.806;2023-06-22T12:45:15;29.40;79.80
35668;DHT22;22158;59.280;17.806;2023-06-22T12:47:41;29.30;79.30
35668;DHT22;22158;59.280;17.806;2023-06-22T12:50:07;29.30;77.50
35668;DHT22;22158;59.280;17.806;2023-06-22T12:52:33;29.00;78.50
35668;DHT22;22158;59.280;17.806;2023-06-22T12:54:58;29.30;76.30
35668;DHT22;22158;59.280;17.806;2023-06-22T12:57:24;29.70;77.40
35668;DHT22;22158;59.280;17.806;2023-06-22T12:59:50;29.60;77.50
35668;DHT22;22158;59.280;17.806;2023-06-22T13:02:16;29.60;75.00
35668;DHT22;22158;59.280;17.806;2023-06-22T13:04:41;29.40;75.90
35668;DHT22;22158;59.280;17.806;2023-06-22T13:07:08;29.20;75.00
35668;DHT22;22158;59.280;17.806;2023-06-22T13:09:36;29.10;77.70
35668;DHT22;22158;59.280;17.806;2023-06-22T13:12:02;29.10;78.50
35668;DHT22;22158;59.280;17.806;2023-06-22T13:14:27;29.20;76.30
35668;DHT22;22158;59.280;17.806;2023-06-22T13:16:53;29.20;78.30
35668;DHT22;22158;59.280;17.806;2023-06-22T13:19:18;29.40;76.70
35668;DHT22;22158;59.280;17.806;2023-06-22T13:21:44;29.40;78.10
35668;DHT22;22158;59.280;17.806;2023-06-22T13:24:10;29.60;75.90
35668;DHT22;22158;59.280;17.806;2023-06-22T13:26:35;29.70;77.10
35668;DHT22;22158;59.280;17.806;2023-06-22T13:29:01;29.70;75.00
35668;DHT22;22158;59.280;17.806;2023-06-22T13:31:27;29.40;75.60
35668;DHT22;22158;59.280;17.806;2023-06-22T13:33:53;29.80;77.10
35668;DHT22;22158;59.280;17.806;2023-06-22T13:36:19;29.80;74.70
35668;DHT22;22158;59.280;17.806;2023-06-22T13:38:45;29.60;74.20
35668;DHT22;22158;59.280;17.806;2023-06-22T13:41:10;29.70;74.70
35668;DHT22;22158;59.280;17.806;2023-06-22T13:43:36;29.60;74.80
35668;DHT22;22158;59.280;17.806;2023-06-22T13:46:02;29.90;73.50
35668;DHT22;22158;59.280;17.806;2023-06-22T13:48:27;29.60;75.80
35668;DHT22;22158;59.280;17.806;2023-06-22T13:50:54;29.90;74.30
35668;DHT22;22158;59.280;17.806;2023-06-22T13:53:19;30.00;76.80
35668;DHT22;22158;59.280;17.806;2023-06-22T13:55:45;30.40;76.60
35668;DHT22;22158;59.280;17.806;2023-06-22T13:58:12;30.60;73.00
35668;DHT22;22158;59.280;17.806;2023-06-22T14:00:37;30.80;73.00
35668;DHT22;22158;59.280;17.806;2023-06-22T14:03:03;30.70;75.00
35668;DHT22;22158;59.280;17.806;2023-06-22T14:05:29;30.90;73.90
35668;DHT22;22158;59.280;17.806;2023-06-22T14:07:54;31.20;72.30
35668;DHT22;22158;59.280;17.806;2023-06-22T14:10:20;31.20;71.20
35668;DHT22;22158;59.280;17.806;2023-06-22T14:12:45;31.10;70.70
35668;DHT22;22158;59.280;17.806;2023-06-22T14:15:11;31.30;73.80
35668;DHT22;22158;59.280;17.806;2023-06-22T14:17:37;31.00;70.50
35668;DHT22;22158;59.280;17.806;2023-06-22T14:20:02;30.90;71.80
35668;DHT22;22158;59.280;17.806;2023-06-22T14:22:28;30.70;70.20
35668;DHT22;22158;59.280;17.806;2023-06-22T14:24:55;30.90;71.30
35668;DHT22;22158;59.280;17.806;2023-06-22T14:27:23;31.10;71.20
35668;DHT22;22158;59.280;17.806;2023-06-22T14:29:48;30.90;72.30
35668;DHT22;22158;59.280;17.806;2023-06-22T14:32:14;30.80;71.10
35668;DHT22;22158;59.280;17.806;2023-06-22T14:34:39;30.80;69.50
35668;DHT22;22158;59.280;17.806;2023-06-22T14:37:08;31.20;71.00
35668;DHT22;22158;59.280;17.806;2023-06-22T14:39:38;31.00;70.80
35668;DHT22;22158;59.280;17.806;2023-06-22T14:42:05;31.30;70.20
35668;DHT22;22158;59.280;17.806;2023-06-22T14:44:30;31.30;68.10
35668;DHT22;22158;59.280;17.806;2023-06-22T14:46:56;31.40;67.80
35668;DHT22;22158;59.280;17.806;2023-06-22T14:49:22;31.50;67.70
35668;DHT22;22158;59.280;17.806;2023-06-22T14:51:47;31.00;66.80
35668;DHT22;22158;59.280;17.806;2023-06-22T14:54:13;31.10;68.00
35668;DHT22;22158;59.280;17.806;2023-06-22T14:56:38;31.10;68.80
35668;DHT22;22158;59.280;17.806;2023-06-22T14:59:04;31.30;70.40
35668;DHT22;22158;59.280;17.806;2023-06-22T15:01:30;31.60;67.00
35668;DHT22;22158;59.280;17.806;2023-06-22T15:03:55;31.90;67.00
35668;DHT22;22158;59.280;17.806;2023-06-22T15:06:21;31.60;67.10
35668;DHT22;22158;59.280;17.806;2023-06-22T15:08:47;31.80;65.70
35668;DHT22;22158;59.280;17.806;2023-06-22T15:11:12;31.60;67.30
35668;DHT22;22158;59.280;17.806;2023-06-22T15:13:39;31.50;67.70
35668;DHT22;22158;59.280;17.806;2023-06-22T15:16:05;31.60;68.60
35668;DHT22;22158;59.280;17.806;2023-06-22T15:18:31;31.50;66.80